Time;durP1;ratioP1;P1;durP2;ratioP2;P2;SDS_P1;SDS_P2;PMS_P1;PMS_P2;Temp;Humidity;BMP_temperature;BMP_pressure;BME280_temperature;BME280_humidity;BME280_pressure;Samples;Min_cycle;Max_cycle;Signal;HPM_P1;HPM_P2
2021/05/10 00:01:29;;;;;;;13.57;6.40;;;;;;;;;;5005281;28;48801;-78
2021/05/10 00:03:56;;;;;;;8.38;6.40;;;;;;;;;;5005402;28;38975;-79
2021/05/10 00:06:22;;;;;;;7.82;6.28;;;;;;;;;;5008235;28;38959;-79
2021/05/10 00:08:48;;;;;;;9.63;6.18;;;;;;;;;;5006949;28;38079;-79
2021/05/10 00:11:15;;;;;;;9.20;5.82;;;;;;;;;;5011495;28;39111;-78
2021/05/10 00:13:46;;;;;;;9.48;6.38;;;;;;;;;;4998154;28;39268;-79
2021/05/10 00:16:12;;;;;;;7.57;5.63;;;;;;;;;;4995779;28;37651;-78
2021/05/10 00:18:39;;;;;;;7.10;5.57;;;;;;;;;;5003668;28;37029;-79
2021/05/10 00:21:05;;;;;;;8.23;5.30;;;;;;;;;;4989428;28;40756;-79
2021/05/10 00:23:32;;;;;;;5.95;4.75;;;;;;;;;;5001904;28;38873;-78
2021/05/10 00:25:58;;;;;;;8.25;5.45;;;;;;;;;;4991788;28;39672;-79
2021/05/10 00:28:24;;;;;;;10.15;4.22;;;;;;;;;;4998170;28;35859;-79
2021/05/10 00:30:51;;;;;;;9.38;5.20;;;;;;;;;;4997527;28;40910;-79
2021/05/10 00:33:17;;;;;;;7.40;4.35;;;;;;;;;;5006562;28;38983;-79
2021/05/10 00:35:44;;;;;;;8.43;5.22;;;;;;;;;;4998056;28;36701;-79
2021/05/10 00:38:10;;;;;;;9.27;5.80;;;;;;;;;;4984098;28;35966;-78
2021/05/10 00:40:37;;;;;;;7.80;5.65;;;;;;;;;;4983569;28;40187;-79
2021/05/10 00:43:04;;;;;;;6.95;4.70;;;;;;;;;;5004390;28;39311;-78
2021/05/10 00:45:30;;;;;;;9.70;6.65;;;;;;;;;;4983809;28;38824;-78
2021/05/10 00:47:56;;;;;;;14.07;6.57;;;;;;;;;;4986905;28;36778;-78
2021/05/10 00:50:23;;;;;;;7.78;6.47;;;;;;;;;;4992833;28;39574;-78
2021/05/10 00:52:50;;;;;;;9.45;6.72;;;;;;;;;;4984308;28;39274;-78
2021/05/10 00:55:16;;;;;;;7.63;5.85;;;;;;;;;;4982792;28;37088;-79
2021/05/10 00:57:44;;;;;;;8.60;6.47;;;;;;;;;;4995958;28;36149;-78
2021/05/10 01:00:13;;;;;;;8.95;7.53;;;;;;;;;;4996074;28;39041;-78
2021/05/10 01:02:40;;;;;;;8.90;6.57;;;;;;;;;;4990769;28;37915;-78
2021/05/10 01:05:07;;;;;;;9.57;7.43;;;;;;;;;;4994867;28;39152;-78
2021/05/10 01:07:34;;;;;;;11.50;8.60;;;;;;;;;;5003017;28;37994;-78
2021/05/10 01:10:01;;;;;;;13.00;7.07;;;;;;;;;;4999242;28;39779;-78
2021/05/10 01:12:27;;;;;;;10.48;7.55;;;;;;;;;;4993106;28;40396;-78
2021/05/10 01:14:53;;;;;;;8.52;6.85;;;;;;;;;;5007262;28;37000;-77
2021/05/10 01:17:20;;;;;;;8.55;6.68;;;;;;;;;;4986442;28;37323;-78
2021/05/10 01:19:47;;;;;;;8.05;5.93;;;;;;;;;;5006464;28;41018;-78
2021/05/10 01:22:15;;;;;;;8.80;6.15;;;;;;;;;;4999549;28;39075;-78
2021/05/10 01:24:42;;;;;;;9.65;6.75;;;;;;;;;;5002630;28;38491;-78
2021/05/10 01:27:10;;;;;;;8.48;5.38;;;;;;;;;;5007488;28;37323;-77
2021/05/10 01:29:37;;;;;;;8.57;5.88;;;;;;;;;;4989277;28;39725;-78
2021/05/10 01:32:04;;;;;;;11.02;6.35;;;;;;;;;;4993995;28;38610;-78
2021/05/10 01:34:30;;;;;;;7.13;5.72;;;;;;;;;;5008701;28;38516;-79
2021/05/10 01:36:57;;;;;;;10.77;6.53;;;;;;;;;;4990887;28;35201;-78
2021/05/10 01:39:23;;;;;;;13.13;6.88;;;;;;;;;;5009977;28;39252;-78
2021/05/10 01:41:49;;;;;;;8.20;6.53;;;;;;;;;;5006021;28;38764;-79
2021/05/10 01:44:16;;;;;;;9.65;6.82;;;;;;;;;;5007722;28;38218;-78
2021/05/10 01:46:42;;;;;;;9.50;6.80;;;;;;;;;;4988860;28;36410;-78
2021/05/10 01:49:09;;;;;;;8.95;6.72;;;;;;;;;;5005771;28;39766;-78
2021/05/10 01:51:36;;;;;;;10.95;7.07;;;;;;;;;;4984687;28;39165;-78
2021/05/10 01:54:03;;;;;;;10.55;7.40;;;;;;;;;;5000342;28;37980;-77
2021/05/10 01:56:29;;;;;;;12.07;6.82;;;;;;;;;;4997843;28;36678;-78
2021/05/10 01:58:55;;;;;;;8.65;6.63;;;;;;;;;;4997083;28;38975;-79
2021/05/10 02:01:22;;;;;;;8.15;6.75;;;;;;;;;;5000752;28;39347;-78
2021/05/10 02:03:49;;;;;;;7.90;6.38;;;;;;;;;;5003538;28;38205;-78
2021/05/10 02:06:15;;;;;;;8.13;6.18;;;;;;;;;;4996039;28;37378;-78
2021/05/10 02:08:44;;;;;;;9.95;6.03;;;;;;;;;;4998462;28;38591;-79
2021/05/10 02:11:10;;;;;;;11.23;6.38;;;;;;;;;;4996039;28;37922;-78
2021/05/10 02:13:37;;;;;;;9.55;6.55;;;;;;;;;;4995604;28;37327;-78
2021/05/10 02:16:03;;;;;;;7.63;6.13;;;;;;;;;;5000836;28;36285;-78
2021/05/10 02:18:31;;;;;;;8.75;6.43;;;;;;;;;;4982393;28;40359;-79
2021/05/10 02:20:58;;;;;;;8.80;6.05;;;;;;;;;;5001366;28;38410;-79
2021/05/10 02:23:26;;;;;;;7.28;6.53;;;;;;;;;;5002163;28;38340;-79
2021/05/10 02:25:53;;;;;;;9.30;5.70;;;;;;;;;;5002760;28;38606;-78
2021/05/10 02:28:23;;;;;;;8.23;6.75;;;;;;;;;;5004251;28;40596;-78
2021/05/10 02:30:50;;;;;;;10.57;5.57;;;;;;;;;;4997380;28;37372;-79
2021/05/10 02:33:18;;;;;;;8.45;5.30;;;;;;;;;;4997043;28;36875;-78
2021/05/10 02:35:44;;;;;;;8.27;5.20;;;;;;;;;;4982531;28;37457;-79
2021/05/10 02:38:11;;;;;;;8.38;5.85;;;;;;;;;;4989925;28;39184;-79
2021/05/10 02:40:38;;;;;;;9.15;5.07;;;;;;;;;;4975806;28;39343;-78
2021/05/10 02:43:05;;;;;;;5.82;4.63;;;;;;;;;;4992160;28;20081;-79
2021/05/10 02:45:31;;;;;;;6.57;4.78;;;;;;;;;;4980504;28;37309;-79
2021/05/10 02:47:58;;;;;;;9.45;4.95;;;;;;;;;;4980629;28;41416;-78
2021/05/10 02:50:25;;;;;;;5.05;4.25;;;;;;;;;;4996250;28;37238;-78
2021/05/10 02:52:52;;;;;;;11.70;4.68;;;;;;;;;;4992415;28;39471;-79
2021/05/10 02:55:19;;;;;;;7.57;4.65;;;;;;;;;;4995293;28;36758;-78
2021/05/10 02:57:47;;;;;;;6.57;4.20;;;;;;;;;;4992232;28;39680;-78
2021/05/10 03:00:14;;;;;;;7.53;4.40;;;;;;;;;;4993419;28;36623;-78
2021/05/10 03:02:41;;;;;;;5.78;4.22;;;;;;;;;;4997346;28;36656;-79
2021/05/10 03:05:08;;;;;;;6.97;4.68;;;;;;;;;;4992860;28;34601;-79
2021/05/10 03:07:35;;;;;;;4.75;3.55;;;;;;;;;;4995427;28;39149;-79
2021/05/10 03:10:01;;;;;;;10.15;4.35;;;;;;;;;;4985736;28;38995;-79
2021/05/10 03:12:28;;;;;;;8.55;3.67;;;;;;;;;;4982184;28;46911;-79
2021/05/10 03:14:55;;;;;;;9.57;4.05;;;;;;;;;;5007455;28;38300;-79
2021/05/10 03:17:21;;;;;;;7.97;3.65;;;;;;;;;;5007806;28;39137;-79
2021/05/10 03:19:48;;;;;;;5.82;3.60;;;;;;;;;;4985069;28;39953;-78
2021/05/10 03:22:14;;;;;;;3.67;3.00;;;;;;;;;;5002147;28;36877;-78
2021/05/10 03:24:41;;;;;;;4.22;3.15;;;;;;;;;;5010769;28;36923;-79
2021/05/10 03:27:07;;;;;;;6.00;3.67;;;;;;;;;;5007415;28;38458;-78
2021/05/10 03:29:34;;;;;;;4.65;3.33;;;;;;;;;;5005056;28;37070;-79
2021/05/10 03:32:00;;;;;;;4.80;3.38;;;;;;;;;;5002973;28;38533;-79
2021/05/10 03:34:27;;;;;;;6.15;3.53;;;;;;;;;;5008175;28;46679;-78
2021/05/10 03:36:53;;;;;;;3.33;3.00;;;;;;;;;;5003301;28;41580;-78
2021/05/10 03:39:19;;;;;;;7.65;3.33;;;;;;;;;;4997680;28;39011;-78
2021/05/10 03:41:46;;;;;;;5.25;3.55;;;;;;;;;;5004396;28;38339;-79
2021/05/10 03:44:12;;;;;;;5.40;3.38;;;;;;;;;;5011274;28;35976;-79
2021/05/10 03:46:39;;;;;;;6.72;3.42;;;;;;;;;;5000065;28;39978;-79
2021/05/10 03:49:05;;;;;;;6.28;3.30;;;;;;;;;;4998272;28;38311;-78
2021/05/10 03:51:31;;;;;;;4.35;2.95;;;;;;;;;;4994466;28;37870;-79
2021/05/10 03:53:58;;;;;;;7.32;3.70;;;;;;;;;;4997531;28;35930;-78
2021/05/10 03:56:24;;;;;;;4.43;3.05;;;;;;;;;;4987735;28;38754;-78
2021/05/10 03:58:51;;;;;;;3.83;3.13;;;;;;;;;;5005749;28;39097;-79
2021/05/10 04:01:17;;;;;;;5.85;3.70;;;;;;;;;;5000835;28;38537;-79
2021/05/10 04:03:53;;;;;;;5.20;3.08;;;;;;;;;;4991935;28;37194;-79
2021/05/10 04:09:26;;;;;;;6.43;2.63;;;;;;;;;;5000684;28;39965;-79
2021/05/10 04:14:37;;;;;;;4.50;2.70;;;;;;;;;;5010082;28;49752;-80
2021/05/10 04:17:04;;;;;;;5.05;2.65;;;;;;;;;;5001668;28;39142;-78
2021/05/10 04:19:30;;;;;;;5.25;3.08;;;;;;;;;;4986947;28;38874;-78
2021/05/10 04:21:57;;;;;;;5.00;3.40;;;;;;;;;;5006461;28;37375;-79
2021/05/10 04:24:26;;;;;;;7.05;4.25;;;;;;;;;;5006721;28;36982;-79
2021/05/10 04:26:53;;;;;;;13.25;5.55;;;;;;;;;;5020754;28;39562;-80
2021/05/10 04:29:20;;;;;;;9.15;5.75;;;;;;;;;;5022778;28;39997;-79
2021/05/10 04:31:46;;;;;;;8.77;5.15;;;;;;;;;;4983834;28;36896;-80
2021/05/10 04:34:12;;;;;;;15.07;5.47;;;;;;;;;;5009783;28;36979;-79
2021/05/10 04:36:39;;;;;;;9.00;5.97;;;;;;;;;;5009271;28;38006;-79
2021/05/10 04:39:05;;;;;;;8.60;5.40;;;;;;;;;;5006078;28;37982;-78
2021/05/10 04:41:31;;;;;;;10.70;6.55;;;;;;;;;;5007087;28;38455;-78
2021/05/10 04:43:58;;;;;;;8.55;6.43;;;;;;;;;;4991246;28;35901;-79
2021/05/10 04:46:24;;;;;;;10.85;7.63;;;;;;;;;;5002224;28;38962;-78
2021/05/10 04:48:51;;;;;;;10.88;5.75;;;;;;;;;;5009601;28;37589;-78
2021/05/10 04:51:17;;;;;;;10.60;6.10;;;;;;;;;;5006581;28;36919;-78
2021/05/10 04:53:43;;;;;;;10.93;6.78;;;;;;;;;;5003509;28;35924;-78
2021/05/10 04:56:10;;;;;;;15.45;6.30;;;;;;;;;;4999721;28;38130;-78
2021/05/10 04:58:36;;;;;;;10.82;5.20;;;;;;;;;;4977576;28;37438;-79
2021/05/10 05:01:02;;;;;;;14.60;5.07;;;;;;;;;;4997885;28;38979;-78
2021/05/10 05:03:29;;;;;;;9.32;4.32;;;;;;;;;;5000277;28;37770;-79
2021/05/10 05:05:55;;;;;;;12.90;5.53;;;;;;;;;;4999796;28;38261;-78
2021/05/10 05:08:21;;;;;;;9.95;4.43;;;;;;;;;;4992621;28;39280;-79
2021/05/10 05:10:48;;;;;;;8.20;4.30;;;;;;;;;;5008690;28;38101;-78
2021/05/10 05:13:40;;;;;;;6.63;3.38;;;;;;;;;;5002066;28;37535;-78
2021/05/10 05:16:07;;;;;;;11.50;3.67;;;;;;;;;;4979296;28;38890;-79
2021/05/10 05:18:33;;;;;;;10.15;4.47;;;;;;;;;;4993700;28;38471;-78
2021/05/10 05:21:00;;;;;;;12.07;3.40;;;;;;;;;;4997850;28;39280;-77
2021/05/10 05:23:28;;;;;;;4.38;2.78;;;;;;;;;;4989280;28;38433;-78
2021/05/10 05:25:55;;;;;;;6.18;2.60;;;;;;;;;;4989054;28;40659;-77
2021/05/10 05:28:21;;;;;;;5.38;2.40;;;;;;;;;;4994853;28;39003;-78
2021/05/10 05:30:48;;;;;;;14.82;3.88;;;;;;;;;;4991759;28;38025;-78
2021/05/10 05:33:14;;;;;;;6.45;2.58;;;;;;;;;;4995065;28;38676;-78
2021/05/10 05:35:44;;;;;;;4.80;2.83;;;;;;;;;;4997767;28;40066;-78
2021/05/10 05:38:11;;;;;;;7.75;3.72;;;;;;;;;;4992829;28;38192;-78
2021/05/10 05:40:38;;;;;;;6.82;4.00;;;;;;;;;;5005498;28;38606;-78
2021/05/10 05:43:04;;;;;;;9.95;4.68;;;;;;;;;;4988202;28;37508;-78
2021/05/10 05:45:31;;;;;;;5.97;4.70;;;;;;;;;;4990394;28;38105;-78
2021/05/10 05:47:58;;;;;;;11.57;5.57;;;;;;;;;;4978415;28;41590;-78
2021/05/10 05:50:24;;;;;;;12.55;5.30;;;;;;;;;;4976482;28;39855;-78
2021/05/10 05:52:50;;;;;;;13.85;5.47;;;;;;;;;;4992337;28;37326;-78
2021/05/10 05:55:17;;;;;;;9.10;5.53;;;;;;;;;;4993350;28;38842;-78
2021/05/10 05:57:44;;;;;;;10.10;6.88;;;;;;;;;;4990517;28;38563;-79
2021/05/10 06:00:11;;;;;;;13.05;6.88;;;;;;;;;;4991590;28;38950;-77
2021/05/10 06:02:40;;;;;;;8.20;5.22;;;;;;;;;;4990769;28;37482;-77
2021/05/10 06:05:07;;;;;;;8.05;4.40;;;;;;;;;;4977051;28;39669;-78
2021/05/10 06:07:38;;;;;;;6.00;3.67;;;;;;;;;;4989687;28;39117;-78
2021/05/10 06:10:04;;;;;;;5.63;3.42;;;;;;;;;;4982434;28;40226;-78
2021/05/10 06:12:31;;;;;;;3.58;2.50;;;;;;;;;;4979730;28;47147;-77
2021/05/10 06:14:57;;;;;;;3.05;2.28;;;;;;;;;;4978514;28;40303;-78
2021/05/10 06:17:23;;;;;;;3.03;2.38;;;;;;;;;;4995287;28;38241;-78
2021/05/10 06:19:50;;;;;;;3.25;2.22;;;;;;;;;;4997427;28;38099;-78
2021/05/10 06:22:16;;;;;;;4.30;2.10;;;;;;;;;;4989868;28;36530;-77
2021/05/10 06:24:43;;;;;;;2.45;2.13;;;;;;;;;;4999500;28;40177;-78
2021/05/10 06:27:09;;;;;;;4.05;2.70;;;;;;;;;;4996069;28;38665;-78
2021/05/10 06:29:35;;;;;;;4.00;2.50;;;;;;;;;;4997115;28;38959;-79
2021/05/10 06:32:03;;;;;;;3.42;2.45;;;;;;;;;;4979847;28;36141;-80
2021/05/10 06:34:29;;;;;;;3.30;2.35;;;;;;;;;;4974366;28;48408;-80
2021/05/10 06:36:55;;;;;;;3.95;2.38;;;;;;;;;;4982319;28;39008;-78
2021/05/10 06:39:22;;;;;;;3.95;2.85;;;;;;;;;;4986057;28;38634;-79
2021/05/10 06:41:48;;;;;;;4.18;2.88;;;;;;;;;;4993837;28;38425;-79
2021/05/10 06:44:15;;;;;;;3.45;2.88;;;;;;;;;;4999840;28;40077;-79
2021/05/10 06:46:41;;;;;;;4.13;3.70;;;;;;;;;;4982017;28;39024;-79
2021/05/10 06:49:07;;;;;;;6.05;3.53;;;;;;;;;;4997918;28;38125;-79
2021/05/10 06:51:34;;;;;;;5.70;3.83;;;;;;;;;;4991407;28;35577;-79
2021/05/10 06:54:00;;;;;;;8.05;4.38;;;;;;;;;;4994292;28;38542;-79
2021/05/10 06:56:26;;;;;;;5.20;4.40;;;;;;;;;;4994090;28;48281;-79
2021/05/10 06:58:53;;;;;;;7.20;4.70;;;;;;;;;;5001738;28;37888;-80
2021/05/10 07:01:19;;;;;;;6.85;3.55;;;;;;;;;;5002319;28;37098;-80
2021/05/10 07:03:46;;;;;;;4.38;2.03;;;;;;;;;;5017211;28;39417;-79
2021/05/10 07:06:12;;;;;;;5.35;2.42;;;;;;;;;;4991498;28;39264;-79
2021/05/10 07:08:39;;;;;;;4.47;2.22;;;;;;;;;;5003327;28;38718;-79
2021/05/10 07:11:06;;;;;;;4.43;2.17;;;;;;;;;;4984984;28;36261;-80
2021/05/10 07:13:32;;;;;;;6.47;2.55;;;;;;;;;;4996249;28;38934;-79
2021/05/10 07:15:58;;;;;;;6.15;3.08;;;;;;;;;;5003212;28;37398;-79
2021/05/10 07:18:26;;;;;;;6.82;3.08;;;;;;;;;;4998477;28;38538;-79
2021/05/10 07:20:54;;;;;;;4.47;2.42;;;;;;;;;;4989199;28;36644;-79
2021/05/10 07:23:21;;;;;;;8.98;3.13;;;;;;;;;;4990395;28;40454;-80
2021/05/10 07:25:48;;;;;;;3.55;2.15;;;;;;;;;;4988573;28;38767;-79
2021/05/10 07:28:15;;;;;;;4.47;2.00;;;;;;;;;;4987392;28;39059;-80
2021/05/10 07:30:42;;;;;;;6.68;2.08;;;;;;;;;;4988996;28;37191;-78
2021/05/10 07:33:09;;;;;;;6.63;1.88;;;;;;;;;;4989979;28;40082;-79
2021/05/10 07:35:36;;;;;;;6.60;2.00;;;;;;;;;;4987759;28;39097;-79
2021/05/10 07:38:03;;;;;;;3.72;1.70;;;;;;;;;;4994135;28;37062;-78
2021/05/10 07:40:30;;;;;;;4.28;1.70;;;;;;;;;;4993609;28;37756;-78
2021/05/10 07:42:57;;;;;;;3.65;1.40;;;;;;;;;;4979747;28;39312;-79
2021/05/10 07:45:24;;;;;;;4.53;1.60;;;;;;;;;;5000558;28;39842;-78
2021/05/10 07:47:53;;;;;;;2.88;1.17;;;;;;;;;;5000876;28;39077;-79
2021/05/10 07:50:20;;;;;;;5.13;1.23;;;;;;;;;;5000381;28;37835;-79
2021/05/10 07:52:46;;;;;;;3.55;1.25;;;;;;;;;;4995318;28;39295;-79
2021/05/10 07:55:13;;;;;;;4.63;1.27;;;;;;;;;;4997444;28;37448;-78
2021/05/10 07:57:39;;;;;;;3.85;1.10;;;;;;;;;;4982369;28;37284;-79
2021/05/10 08:00:10;;;;;;;3.40;1.45;;;;;;;;;;5002861;28;36365;-78
2021/05/10 08:02:37;;;;;;;6.90;1.85;;;;;;;;;;4977126;28;45865;-78
2021/05/10 08:05:07;;;;;;;4.82;1.20;;;;;;;;;;5007149;28;39525;-78
2021/05/10 08:07:33;;;;;;;6.53;1.77;;;;;;;;;;4983606;28;47215;-78
2021/05/10 08:09:59;;;;;;;8.93;1.90;;;;;;;;;;4999839;28;37690;-79
2021/05/10 08:12:26;;;;;;;4.72;1.23;;;;;;;;;;4990678;28;38093;-78
2021/05/10 08:14:52;;;;;;;4.32;1.60;;;;;;;;;;4991659;28;37201;-78
2021/05/10 08:17:21;;;;;;;5.07;1.60;;;;;;;;;;4993685;28;38138;-78
2021/05/10 08:19:47;;;;;;;4.45;1.70;;;;;;;;;;4999707;28;37977;-79
2021/05/10 08:22:13;;;;;;;5.45;1.58;;;;;;;;;;4992608;28;37324;-79
2021/05/10 08:24:40;;;;;;;5.65;1.83;;;;;;;;;;4999305;28;38633;-79
2021/05/10 08:27:06;;;;;;;7.50;1.48;;;;;;;;;;4999979;28;38190;-79
2021/05/10 08:29:33;;;;;;;6.07;1.60;;;;;;;;;;4998211;28;38001;-78
2021/05/10 08:32:00;;;;;;;4.32;1.23;;;;;;;;;;4995735;28;39014;-79
2021/05/10 08:34:27;;;;;;;5.00;1.35;;;;;;;;;;4998355;28;47657;-78
2021/05/10 08:36:54;;;;;;;3.97;1.48;;;;;;;;;;4989632;28;39403;-78
2021/05/10 08:39:21;;;;;;;4.18;1.40;;;;;;;;;;4997561;28;37420;-79
2021/05/10 08:41:47;;;;;;;5.72;1.50;;;;;;;;;;4979887;28;39297;-78
2021/05/10 08:44:14;;;;;;;9.32;1.80;;;;;;;;;;4996784;28;38587;-77
2021/05/10 08:46:41;;;;;;;3.70;1.33;;;;;;;;;;4999433;28;37807;-77
2021/05/10 08:49:07;;;;;;;5.97;1.60;;;;;;;;;;4982830;28;37833;-77
2021/05/10 08:51:35;;;;;;;3.13;1.38;;;;;;;;;;5001625;28;39053;-77
2021/05/10 08:54:01;;;;;;;3.88;1.60;;;;;;;;;;4976743;28;39915;-78
2021/05/10 08:56:28;;;;;;;7.32;2.08;;;;;;;;;;4996331;28;48371;-77
2021/05/10 08:58:54;;;;;;;6.32;1.55;;;;;;;;;;4984736;28;37030;-78
2021/05/10 09:01:21;;;;;;;6.60;1.85;;;;;;;;;;4976183;28;41075;-78
2021/05/10 09:03:49;;;;;;;9.23;2.30;;;;;;;;;;5002818;28;38428;-79
2021/05/10 09:06:29;;;;;;;5.05;1.92;;;;;;;;;;4999081;28;38254;-78
2021/05/10 09:09:03;;;;;;;10.70;2.15;;;;;;;;;;4998972;28;37113;-77
2021/05/10 09:11:30;;;;;;;8.75;3.00;;;;;;;;;;4998760;28;48115;-77
2021/05/10 09:13:59;;;;;;;9.77;3.00;;;;;;;;;;4996370;28;40539;-77
2021/05/10 09:16:26;;;;;;;8.65;2.80;;;;;;;;;;4981262;28;40014;-77
2021/05/10 09:18:53;;;;;;;6.78;3.00;;;;;;;;;;4998305;28;37881;-77
2021/05/10 09:21:23;;;;;;;12.90;3.03;;;;;;;;;;4983493;28;39022;-77
2021/05/10 09:23:50;;;;;;;8.35;2.80;;;;;;;;;;5001337;28;38237;-77
2021/05/10 09:26:27;;;;;;;5.70;2.63;;;;;;;;;;4993841;28;38392;-77
2021/05/10 09:28:53;;;;;;;8.27;2.88;;;;;;;;;;5006112;28;38432;-77
2021/05/10 09:31:20;;;;;;;8.57;2.80;;;;;;;;;;5000482;28;39128;-77
2021/05/10 09:33:47;;;;;;;8.73;2.92;;;;;;;;;;5002078;28;40098;-77
2021/05/10 09:36:34;;;;;;;13.15;3.28;;;;;;;;;;4998451;28;38680;-77
2021/05/10 09:39:05;;;;;;;7.80;3.05;;;;;;;;;;4995876;28;37629;-77
2021/05/10 09:41:32;;;;;;;12.35;3.08;;;;;;;;;;4994908;28;47422;-76
2021/05/10 09:44:00;;;;;;;11.25;3.65;;;;;;;;;;4982992;28;41433;-77
2021/05/10 09:46:43;;;;;;;8.10;3.28;;;;;;;;;;4998554;28;38028;-77
2021/05/10 09:49:10;;;;;;;8.02;3.25;;;;;;;;;;4979059;28;37850;-77
2021/05/10 09:51:37;;;;;;;10.07;2.70;;;;;;;;;;4991875;28;39384;-77
2021/05/10 09:54:13;;;;;;;6.32;2.88;;;;;;;;;;4991565;28;39411;-77
2021/05/10 09:56:40;;;;;;;7.18;2.92;;;;;;;;;;4996890;28;38710;-77
2021/05/10 09:59:14;;;;;;;7.20;3.30;;;;;;;;;;4997242;28;37212;-77
2021/05/10 10:01:45;;;;;;;7.78;2.50;;;;;;;;;;4995518;28;39174;-77
2021/05/10 10:04:20;;;;;;;6.20;2.42;;;;;;;;;;4993504;28;38812;-78
2021/05/10 10:06:47;;;;;;;8.10;3.03;;;;;;;;;;4992412;28;38438;-77
2021/05/10 10:09:14;;;;;;;9.65;3.03;;;;;;;;;;4995392;28;37170;-77
2021/05/10 10:11:40;;;;;;;7.97;3.13;;;;;;;;;;5004948;28;39040;-78
2021/05/10 10:14:07;;;;;;;7.40;2.88;;;;;;;;;;4996465;28;38389;-77
2021/05/10 10:16:34;;;;;;;7.38;2.88;;;;;;;;;;4979042;28;40104;-77
2021/05/10 10:19:01;;;;;;;6.45;2.50;;;;;;;;;;4980172;28;37591;-77
2021/05/10 10:21:28;;;;;;;4.95;2.00;;;;;;;;;;4981087;28;48455;-77
2021/05/10 10:23:57;;;;;;;6.05;2.63;;;;;;;;;;4986745;28;39283;-77
2021/05/10 10:26:25;;;;;;;8.68;2.70;;;;;;;;;;4979707;28;37618;-77
2021/05/10 10:28:52;;;;;;;6.90;2.65;;;;;;;;;;4998325;28;39062;-77
2021/05/10 10:31:28;;;;;;;7.90;3.33;;;;;;;;;;4981325;28;38969;-77
2021/05/10 10:34:04;;;;;;;7.35;2.63;;;;;;;;;;4977090;28;39069;-76
2021/05/10 10:36:31;;;;;;;7.47;1.98;;;;;;;;;;4991762;28;47192;-76
2021/05/10 10:39:11;;;;;;;6.15;2.13;;;;;;;;;;4997816;28;36880;-76
2021/05/10 10:41:56;;;;;;;7.30;2.25;;;;;;;;;;4992051;28;49053;-76
2021/05/10 10:44:47;;;;;;;6.43;2.17;;;;;;;;;;4980130;28;39236;-77
2021/05/10 10:47:16;;;;;;;6.53;1.98;;;;;;;;;;4990130;28;38243;-77
2021/05/10 10:49:43;;;;;;;7.57;1.90;;;;;;;;;;4998210;28;37958;-76
2021/05/10 10:52:23;;;;;;;8.02;2.10;;;;;;;;;;4989607;28;39503;-77
2021/05/10 10:55:08;;;;;;;6.70;2.20;;;;;;;;;;4990024;28;38648;-77
2021/05/10 10:57:34;;;;;;;6.78;2.13;;;;;;;;;;4974015;28;47459;-78
2021/05/10 11:00:01;;;;;;;9.40;2.17;;;;;;;;;;4982409;28;37468;-78
2021/05/10 11:02:28;;;;;;;6.82;1.83;;;;;;;;;;4994598;28;48715;-78
2021/05/10 11:05:10;;;;;;;8.82;2.25;;;;;;;;;;4983035;28;39870;-79
2021/05/10 11:07:49;;;;;;;6.03;2.30;;;;;;;;;;4978079;28;47286;-78
2021/05/10 11:10:34;;;;;;;6.10;2.45;;;;;;;;;;4993124;28;37361;-80
2021/05/10 11:13:01;;;;;;;4.25;2.05;;;;;;;;;;4992341;28;39815;-78
2021/05/10 11:15:33;;;;;;;8.00;1.80;;;;;;;;;;4991768;28;48728;-80
2021/05/10 11:17:59;;;;;;;;;;;;;;;;;;4984609;28;40109;-79
2021/05/10 11:20:45;;;;;;;7.32;2.20;;;;;;;;;;4987005;28;37770;-80
2021/05/10 11:23:26;;;;;;;6.13;1.80;;;;;;;;;;4997516;28;37676;-80
2021/05/10 11:25:53;;;;;;;5.95;2.03;;;;;;;;;;5000858;28;38474;-79
2021/05/10 11:28:26;;;;;;;7.75;1.90;;;;;;;;;;4995307;28;38621;-79
2021/05/10 11:30:56;;;;;;;6.40;1.77;;;;;;;;;;4997616;28;36905;-77
2021/05/10 11:33:41;;;;;;;7.15;2.28;;;;;;;;;;4999449;28;38421;-78
2021/05/10 11:36:08;;;;;;;7.15;1.65;;;;;;;;;;4990530;28;39144;-79
2021/05/10 11:38:34;;;;;;;5.30;1.80;;;;;;;;;;4991831;28;38794;-79
2021/05/10 11:41:01;;;;;;;5.43;1.65;;;;;;;;;;4984973;28;35252;-80
2021/05/10 11:43:27;;;;;;;7.43;2.00;;;;;;;;;;5006104;28;38432;-78
2021/05/10 11:45:54;;;;;;;5.45;1.90;;;;;;;;;;4996902;28;38710;-80
2021/05/10 11:48:43;;;;;;;5.93;1.50;;;;;;;;;;4999465;28;38020;-79
2021/05/10 11:51:22;;;;;;;2.70;1.10;;;;;;;;;;4972621;28;37412;-79
2021/05/10 11:53:58;;;;;;;7.35;1.83;;;;;;;;;;4982549;28;40615;-80
2021/05/10 11:56:28;;;;;;;7.93;1.85;;;;;;;;;;5001387;28;39978;-80
2021/05/10 11:58:59;;;;;;;5.38;1.60;;;;;;;;;;5001847;28;36653;-78
2021/05/10 12:01:36;;;;;;;6.90;1.70;;;;;;;;;;4978914;28;37438;-78
2021/05/10 12:04:19;;;;;;;6.15;1.48;;;;;;;;;;4994113;28;40242;-78
2021/05/10 12:06:45;;;;;;;4.43;1.42;;;;;;;;;;4980021;28;37550;-76
2021/05/10 12:09:30;;;;;;;8.25;1.95;;;;;;;;;;4980197;28;38283;-77
2021/05/10 12:11:57;;;;;;;8.05;1.77;;;;;;;;;;4989338;28;37683;-76
2021/05/10 12:14:23;;;;;;;7.30;2.35;;;;;;;;;;4995151;28;38766;-76
2021/05/10 12:17:02;;;;;;;8.93;2.15;;;;;;;;;;4980926;28;39069;-76
2021/05/10 12:20:00;;;;;;;5.03;1.67;;;;;;;;;;4992629;28;48602;-75
2021/05/10 12:22:28;;;;;;;6.97;2.10;;;;;;;;;;4956822;28;36760;-77
2021/05/10 12:24:59;;;;;;;5.30;1.92;;;;;;;;;;4994931;28;39155;-76
2021/05/10 12:27:29;;;;;;;5.53;1.55;;;;;;;;;;5001769;28;39010;-79
2021/05/10 12:29:55;;;;;;;8.20;2.10;;;;;;;;;;5002189;28;39542;-78
2021/05/10 12:32:22;;;;;;;5.05;1.80;;;;;;;;;;5004280;28;36903;-78
2021/05/10 12:34:49;;;;;;;4.35;1.13;;;;;;;;;;4996091;28;38703;-78
2021/05/10 12:37:16;;;;;;;5.20;1.58;;;;;;;;;;4984832;28;37496;-79
2021/05/10 12:39:42;;;;;;;7.70;1.42;;;;;;;;;;4986006;28;38410;-79
2021/05/10 12:42:12;;;;;;;4.05;1.13;;;;;;;;;;4998666;28;37685;-79
2021/05/10 12:44:39;;;;;;;6.72;1.70;;;;;;;;;;5016269;28;39687;-79
2021/05/10 12:47:05;;;;;;;7.70;1.50;;;;;;;;;;4979914;28;39335;-78
2021/05/10 12:49:32;;;;;;;7.25;1.92;;;;;;;;;;4988692;28;39671;-78
2021/05/10 12:51:58;;;;;;;6.25;1.63;;;;;;;;;;4997268;28;36466;-79
2021/05/10 12:54:25;;;;;;;4.00;1.42;;;;;;;;;;4999769;28;40055;-80
2021/05/10 12:56:52;;;;;;;8.93;1.48;;;;;;;;;;4993001;28;38885;-78
2021/05/10 12:59:18;;;;;;;8.32;1.77;;;;;;;;;;5005212;28;39512;-78
2021/05/10 13:01:47;;;;;;;5.28;1.63;;;;;;;;;;4999595;28;36477;-79
2021/05/10 13:04:20;;;;;;;9.35;2.25;;;;;;;;;;5004623;28;38158;-78
2021/05/10 13:06:53;;;;;;;6.30;1.50;;;;;;;;;;4989731;28;39159;-79
2021/05/10 13:09:23;;;;;;;8.13;1.60;;;;;;;;;;4993574;28;37001;-80
2021/05/10 13:11:55;;;;;;;8.50;1.73;;;;;;;;;;5009381;28;36970;-79
2021/05/10 13:14:38;;;;;;;6.30;1.55;;;;;;;;;;5001248;28;38757;-79
2021/05/10 13:17:14;;;;;;;5.53;1.63;;;;;;;;;;5008231;28;38018;-77
2021/05/10 13:20:17;;;;;;;8.48;1.45;;;;;;;;;;5016875;28;38420;-79
2021/05/10 13:31:20;;;;;;;3.72;1.15;;;;;;;;;;5005271;28;40121;-78
2021/05/10 13:34:03;;;;;;;9.02;1.95;;;;;;;;;;5006833;28;47629;-78
2021/05/10 13:36:35;;;;;;;4.05;1.33;;;;;;;;;;5003794;28;47683;-77
2021/05/10 13:39:03;;;;;;;5.43;1.67;;;;;;;;;;4980734;28;37543;-77
2021/05/10 13:41:40;;;;;;;6.70;1.70;;;;;;;;;;4999931;28;48847;-78
2021/05/10 13:44:08;;;;;;;4.35;1.20;;;;;;;;;;5008522;28;37239;-78
2021/05/10 13:46:35;;;;;;;9.52;2.17;;;;;;;;;;4992153;28;38415;-79
2021/05/10 13:49:02;;;;;;;7.20;2.00;;;;;;;;;;5004070;28;37808;-78
2021/05/10 13:51:28;;;;;;;8.52;2.05;;;;;;;;;;4998376;28;38219;-78
2021/05/10 13:53:59;;;;;;;6.75;2.25;;;;;;;;;;4983054;28;36892;-79
2021/05/10 13:56:26;;;;;;;6.80;1.60;;;;;;;;;;4973353;28;39442;-78
2021/05/10 13:58:52;;;;;;;7.18;1.95;;;;;;;;;;5003207;28;38472;-79
2021/05/10 14:01:18;;;;;;;7.07;2.08;;;;;;;;;;4995761;28;38989;-79
2021/05/10 14:03:45;;;;;;;6.65;2.00;;;;;;;;;;4985572;28;35496;-79
2021/05/10 14:06:12;;;;;;;8.60;2.10;;;;;;;;;;4990070;28;37943;-78
2021/05/10 14:08:38;;;;;;;7.63;1.90;;;;;;;;;;4998795;28;38925;-78
2021/05/10 14:11:06;;;;;;;6.55;1.55;;;;;;;;;;4979414;28;37386;-79
2021/05/10 14:13:32;;;;;;;10.00;1.63;;;;;;;;;;4990120;28;47135;-79
2021/05/10 14:16:02;;;;;;;7.30;1.63;;;;;;;;;;5001912;28;38704;-80
2021/05/10 14:18:29;;;;;;;5.50;1.52;;;;;;;;;;4978074;28;38789;-78
2021/05/10 14:23:42;;;;;;;5.40;1.65;;;;;;;;;;5003798;28;49322;-79
2021/05/10 14:26:09;;;;;;;4.43;1.50;;;;;;;;;;4997541;28;37826;-80
2021/05/10 14:28:38;;;;;;;7.63;1.83;;;;;;;;;;5004433;28;38951;-80
2021/05/10 14:31:07;;;;;;;5.00;1.45;;;;;;;;;;4996260;28;38447;-79
2021/05/10 14:33:34;;;;;;;6.03;2.05;;;;;;;;;;5010273;28;36946;-80
2021/05/10 14:36:01;;;;;;;4.25;1.48;;;;;;;;;;4987810;28;37801;-80
2021/05/10 14:38:28;;;;;;;6.47;1.83;;;;;;;;;;5003558;28;47169;-80
2021/05/10 14:40:55;;;;;;;5.55;2.00;;;;;;;;;;4986006;28;38573;-79
2021/05/10 14:43:22;;;;;;;4.82;1.30;;;;;;;;;;4997290;28;36159;-80
2021/05/10 14:45:48;;;;;;;7.75;2.03;;;;;;;;;;4998847;28;38652;-79
2021/05/10 14:48:15;;;;;;;7.35;1.95;;;;;;;;;;5000962;28;39101;-79
2021/05/10 14:50:42;;;;;;;9.63;2.35;;;;;;;;;;4997175;28;37987;-78
2021/05/10 14:53:09;;;;;;;7.25;2.05;;;;;;;;;;4977301;28;35867;-76
2021/05/10 14:55:35;;;;;;;5.50;1.73;;;;;;;;;;4971820;28;37656;-78
2021/05/10 14:58:02;;;;;;;5.95;1.55;;;;;;;;;;4981589;28;38364;-80
2021/05/10 15:00:28;;;;;;;5.45;1.25;;;;;;;;;;4972427;28;47099;-80
2021/05/10 15:02:55;;;;;;;5.68;1.83;;;;;;;;;;4998947;28;35962;-84
2021/05/10 15:05:21;;;;;;;6.38;2.03;;;;;;;;;;4998342;28;39218;-81